Time;durP1;ratioP1;P1;durP2;ratioP2;P2;SDS_P1;SDS_P2;PMS_P1;PMS_P2;Temp;Humidity;BMP_temperature;BMP_pressure;BME280_temperature;BME280_humidity;BME280_pressure;Samples;Min_cycle;Max_cycle;Signal;HPM_P1;HPM_P2
2021/09/16 06:50:49;;;;;;;3.58;2.00;;;;;;;16.33;96.67;92662.13;5141359;23;20534;-77
2021/09/16 06:53:15;;;;;;;4.38;2.03;;;;;;;16.42;96.85;92664.72;4814021;29;20049;-78
2021/09/16 06:55:40;;;;;;;6.10;3.20;;;;;;;16.54;96.97;92671.97;4861820;29;20038;-77
2021/09/16 06:58:06;;;;;;;6.88;3.08;;;;;;;16.62;96.59;92665.88;4842849;29;20057;-77
2021/09/16 07:00:32;;;;;;;7.82;3.67;;;;;;;16.83;96.64;92669.38;4845010;29;20057;-78
2021/09/16 07:02:57;;;;;;;6.28;3.55;;;;;;;16.95;96.20;92670.53;4861322;29;20102;-77
2021/09/16 07:05:23;;;;;;;8.10;3.92;;;;;;;17.01;95.53;92679.84;4861375;29;20444;-77
2021/09/16 07:07:49;;;;;;;6.80;3.50;;;;;;;17.09;94.48;92675.56;4861295;29;20053;-78
2021/09/16 07:10:14;;;;;;;4.57;2.75;;;;;;;16.96;94.93;92667.59;4839362;29;20048;-76
2021/09/16 07:12:40;;;;;;;5.50;3.13;;;;;;;16.89;95.57;92666.53;4826506;29;20468;-77
2021/09/16 07:15:06;;;;;;;7.88;3.58;;;;;;;16.83;95.49;92664.06;4843333;29;20063;-77
2021/09/16 07:17:32;;;;;;;11.13;3.95;;;;;;;16.84;96.13;92670.94;4828547;29;20584;-77
2021/09/16 07:19:58;;;;;;;8.15;3.50;;;;;;;16.77;97.01;92667.97;4845036;29;20069;-78
2021/09/16 07:22:23;;;;;;;7.07;3.03;;;;;;;16.84;95.58;92665.63;4844305;29;20503;-77
2021/09/16 07:24:49;;;;;;;7.07;3.42;;;;;;;16.87;94.75;92668.75;4826214;29;20046;-77
2021/09/16 07:27:15;;;;;;;7.60;3.08;;;;;;;16.89;93.36;92671.81;4854841;29;20044;-77
2021/09/16 07:29:40;;;;;;;4.75;2.85;;;;;;;16.89;94.37;92672.59;4859949;29;20045;-76
2021/09/16 07:32:06;;;;;;;4.07;2.53;;;;;;;16.78;95.00;92674.81;4853415;29;20050;-77
2021/09/16 07:34:32;;;;;;;4.75;2.67;;;;;;;16.60;96.64;92683.94;4818125;29;20038;-78
2021/09/16 07:36:58;;;;;;;5.15;2.63;;;;;;;16.63;97.32;92691.22;4844772;29;20110;-77
2021/09/16 07:42:26;;;;;;;8.05;3.60;;;;;;;16.23;99.68;92651.88;5749140;23;20061;-94
2021/09/16 07:45:44;;;;;;;8.35;2.97;;;;;;;16.13;99.34;92649.63;4845434;29;20056;-94
2021/09/16 07:49:04;;;;;;;;;;;;;;;;;;;;;
2021/09/16 07:55:36;;;;;;;;;;;;;;;;;;;;;
2021/09/16 07:59:01;;;;;;;6.82;4.20;;;;;;;16.32;99.62;92654.50;4868308;29;20059;-94
2021/09/16 08:02:22;;;;;;;;;;;;;;;;;;;;;
2021/09/16 08:05:46;;;;;;;;;;;;;;;;;;;;;
2021/09/16 08:09:03;;;;;;;6.57;3.85;;;;;;;16.37;98.29;92667.53;4843945;29;20054;-93
2021/09/16 08:12:22;;;;;;;6.20;3.65;;;;;;;16.49;97.37;92656.31;4837794;29;20056;-94
2021/09/16 08:15:45;;;;;;;6.00;3.50;;;;;;;16.97;96.62;92702.72;4848554;29;20526;-93
2021/09/16 08:18:57;;;;;;;6.68;3.78;;;;;;;16.91;95.13;92667.78;4870691;29;20052;-94
2021/09/16 08:28:34;;;;;;;5.93;3.22;;;;;;;16.87;95.26;92671.38;4848344;29;20057;-93
2021/09/16 08:35:06;;;;;;;6.13;3.17;;;;;;;16.78;95.23;92663.47;4837206;29;20105;-93
2021/09/16 08:42:12;;;;;;;6.10;3.60;;;;;;;16.98;96.71;92701.66;4875461;29;20356;-93
2021/09/16 08:45:31;;;;;;;;;;;;;;;;;;;;;
2021/09/16 08:49:48;;;;;;;;;;;;;;;;;;;;;
2021/09/16 08:52:29;;;;;;;5.30;3.30;;;;;;;16.78;95.68;92671.41;4838361;29;20048;-93
2021/09/16 08:55:59;;;;;;;4.30;2.22;;;;;;;17.40;91.32;92720.97;4846583;29;20562;-94
2021/09/16 08:59:05;;;;;;;;;;;;;;;;;;;;;
2021/09/16 09:02:36;;;;;;;;;;;;;;;;;;;;;
2021/09/16 09:05:53;;;;;;;;;;;;;;;;;;;;;
2021/09/16 09:10:04;;;;;;;8.55;2.63;;;;;;;18.27;84.75;92685.78;4862726;29;20053;-93
2021/09/16 09:13:10;;;;;;;4.50;2.80;;;;;;;17.60;88.42;92644.53;4820335;29;20038;-93
2021/09/16 09:16:11;;;;;;;4.88;2.90;;;;;;;17.55;90.46;92664.03;4840409;29;20057;-94
2021/09/16 09:19:33;;;;;;;5.77;2.40;;;;;;;17.41;91.71;92666.19;4871097;29;20495;-93
2021/09/16 09:22:46;;;;;;;;;;;;;;;;;;;;;
2021/09/16 09:25:52;;;;;;;4.30;2.88;;;;;;;17.47;88.91;92680.75;4873482;29;20043;-93
2021/09/16 09:29:18;;;;;;;6.28;2.67;;;;;;;17.77;88.45;92702.63;4876616;29;20052;-93
2021/09/16 09:32:53;;;;;;;2.97;2.00;;;;;;;17.46;87.87;92679.22;4842345;29;20448;-93
2021/09/16 09:43:38;;;;;;;5.07;2.10;;;;;;;17.85;86.28;92675.31;4847780;29;20124;-93
2021/09/16 09:46:49;;;;;;;3.67;1.88;;;;;;;17.48;88.67;92651.31;4827583;29;20145;-95
2021/09/16 09:49:56;;;;;;;3.55;2.17;;;;;;;17.98;86.51;92657.59;4845259;29;20038;-94
2021/09/16 09:57:10;;;;;;;;;;;;;;;;;;;;;
2021/09/16 10:03:34;;;;;;;2.28;1.35;;;;;;;19.09;80.78;92702.75;4863997;29;20025;-93
2021/09/16 10:06:36;;;;;;;;;;;;;;;;;;;;;
2021/09/16 10:13:17;;;;;;;;;;;;;;;;;;;;;
2021/09/16 10:19:19;;;;;;;4.30;1.67;;;;;;;18.32;84.50;92663.59;4846280;29;20110;-91
2021/09/16 10:22:29;;;;;;;3.38;1.90;;;;;;;18.01;85.39;92656.94;4846319;29;20038;-93
2021/09/16 10:28:32;;;;;;;;;;;;;;;;;;;;;
2021/09/16 10:32:04;;;;;;;3.13;1.50;;;;;;;18.64;82.25;92666.50;4831221;29;20057;-93
2021/09/16 10:34:56;;;;;;;2.38;1.27;;;;;;;18.21;85.16;92657.19;4832124;29;20436;-92
2021/09/16 10:41:53;;;;;;;2.80;1.45;;;;;;;18.46;87.38;92695.88;4854546;29;20057;-92
2021/09/16 10:44:42;;;;;;;3.05;1.67;;;;;;;18.26;85.85;92665.72;4853406;29;20049;-92
2021/09/16 10:47:50;;;;;;;6.45;1.80;;;;;;;18.26;86.65;92702.00;4843330;29;20050;-93
2021/09/16 10:51:03;;;;;;;3.88;2.13;;;;;;;18.20;85.95;92663.59;4867769;29;20045;-91
2021/09/16 10:54:24;;;;;;;;;;;;;;;;;;;;;
2021/09/16 10:57:30;;;;;;;2.72;1.67;;;;;;;18.94;83.84;92648.53;4862175;29;20057;-93
2021/09/16 11:00:40;;;;;;;3.05;1.45;;;;;;;19.04;83.48;92676.47;4861006;29;20059;-95
2021/09/16 11:07:55;;;;;;;;;;;;;;;;;;;;;
2021/09/16 11:15:01;;;;;;;5.57;2.78;;;;;;;19.22;81.45;92696.31;4847548;29;20053;-92
2021/09/16 11:18:26;;;;;;;5.95;2.13;;;;;;;18.68;82.90;92651.47;4812362;29;20053;-92
2021/09/16 11:21:40;;;;;;;;;;;;;;;;;;;;;
2021/09/16 11:25:17;;;;;;;2.83;1.73;;;;;;;19.02;84.49;92649.50;4876085;29;20092;-93
2021/09/16 11:31:35;;;;;;;3.75;2.10;;;;;;;19.09;83.62;92660.31;4870578;29;20871;-94
2021/09/16 11:34:49;;;;;;;4.78;2.38;;;;;;;19.33;83.43;92654.19;4860274;29;20057;-93
2021/09/16 11:41:12;;;;;;;5.05;2.40;;;;;;;18.92;83.56;92613.59;4868343;29;20054;-93
2021/09/16 11:44:40;;;;;;;;;;;;;;;;;;;;;
2021/09/16 11:47:56;;;;;;;6.20;3.00;;;;;;;18.81;82.05;92623.88;4860899;29;20089;-94
2021/09/16 11:54:13;;;;;;;4.13;2.17;;;;;;;18.56;85.72;92649.59;4860139;29;20048;-92
2021/09/16 11:57:17;;;;;;;3.83;2.00;;;;;;;18.73;84.03;92685.72;4841774;29;20057;-93
2021/09/16 12:01:00;;;;;;;4.80;2.45;;;;;;;18.67;83.28;92665.84;4835946;29;20085;-93
2021/09/16 12:04:11;;;;;;;;;;;;;;;;;;;;;
2021/09/16 12:07:27;;;;;;;;;;;;;;;;;;;;;
2021/09/16 12:10:44;;;;;;;3.97;2.10;;;;;;;18.37;84.03;92625.50;4860924;29;20061;-94
2021/09/16 12:13:45;;;;;;;2.92;1.83;;;;;;;18.13;84.13;92624.41;4852886;29;20505;-92
2021/09/16 12:17:14;;;;;;;5.35;2.00;;;;;;;18.50;85.84;92635.78;4845529;29;20044;-93
2021/09/16 12:23:43;;;;;;;4.80;2.58;;;;;;;18.22;84.96;92650.81;4833186;29;20052;-93
2021/09/16 12:30:33;;;;;;;;;;;;;;;;;;;;;
2021/09/16 12:33:41;;;;;;;5.18;2.15;;;;;;;18.49;86.92;92654.69;4866210;29;20060;-93
2021/09/16 12:36:40;;;;;;;5.40;2.25;;;;;;;18.45;87.39;92649.28;4849523;29;20085;-93
2021/09/16 12:39:42;;;;;;;5.65;3.00;;;;;;;18.18;86.62;92605.63;4863227;29;20101;-93
2021/09/16 12:42:58;;;;;;;7.28;3.13;;;;;;;18.49;85.97;92649.41;4843728;29;20064;-93
2021/09/16 12:46:01;;;;;;;4.45;2.40;;;;;;;17.93;86.74;92594.25;4863931;29;20083;-93
2021/09/16 12:49:06;;;;;;;;;;;;;;;;;;;;;
2021/09/16 12:53:04;;;;;;;;;;;;;;;;;;;;;
2021/09/16 12:56:49;;;;;;;;;;;;;;;;;;;;;
2021/09/16 13:03:30;;;;;;;5.03;1.98;;;;;;;18.10;87.35;92580.81;4852101;29;20052;-93
2021/09/16 13:07:05;;;;;;;;;;;;;;;;;;;;;
2021/09/16 13:10:42;;;;;;;;;;;;;;;;;;;;;
2021/09/16 13:14:42;;;;;;;;;;;;;;;;;;;;;
2021/09/16 13:18:25;;;;;;;;;;;;;;;;;;;;;
2021/09/16 13:25:12;;;;;;;7.32;2.78;;;;;;;17.94;85.97;92568.53;4793506;29;20062;-92
2021/09/16 13:41:02;;;;;;;4.47;2.50;;;;;;;18.40;83.96;92555.97;4837120;29;20056;-93
2021/09/16 13:47:36;;;;;;;4.57;2.60;;;;;;;19.10;82.00;92596.31;4822185;29;20487;-94
2021/09/16 13:50:49;;;;;;;;;;;;;;;;;;;;;
2021/09/16 13:54:11;;;;;;;3.60;2.30;;;;;;;17.95;85.96;92552.31;4801429;29;20133;-91
2021/09/16 13:57:48;;;;;;;;;;;;;;;;;;;;;
2021/09/16 14:00:58;;;;;;;4.60;2.55;;;;;;;18.44;85.46;92565.56;4866280;29;20105;-92
2021/09/16 14:07:58;;;;;;;9.80;3.17;;;;;;;18.60;83.24;92530.41;4854631;29;20045;-93
2021/09/16 14:10:57;;;;;;;5.75;2.83;;;;;;;19.00;83.23;92535.75;4854878;29;20153;-92
2021/09/16 14:18:01;;;;;;;4.28;2.13;;;;;;;19.70;80.29;92548.66;4842116;29;20136;-92
2021/09/16 14:24:37;;;;;;;;;;;;;;;;;;;;;
2021/09/16 14:27:50;;;;;;;;;;;;;;;;;;;;;
2021/09/16 14:43:06;;;;;;;7.85;1.92;;;;;;;18.36;78.45;92518.00;4877203;29;20053;-92
2021/09/16 14:46:08;;;;;;;5.18;2.10;;;;;;;18.42;80.22;92528.03;4861098;29;20521;-92
2021/09/16 14:49:05;;;;;;;3.75;1.55;;;;;;;18.46;78.00;92539.50;4847493;29;20049;-93
2021/09/16 14:51:47;;;;;;;;;;;;;;;;;;;;;
2021/09/16 15:09:47;;;;;;;2.83;1.60;;;;;;;18.48;82.25;92541.81;4877246;29;20061;-92
2021/09/16 15:13:28;;;;;;;;;;;;;;;;;;;;;
2021/09/16 15:16:33;;;;;;;;;;;;;;;;;;;;;
2021/09/16 15:19:56;;;;;;;5.53;1.83;;;;;;;17.96;82.38;92521.31;4872739;29;20080;-94
2021/09/16 15:23:16;;;;;;;;;;;;;;;;;;;;;
2021/09/16 15:26:53;;;;;;;2.75;1.52;;;;;;;17.92;82.55;92523.06;4836497;29;20158;-91
2021/09/16 15:30:17;;;;;;;4.00;1.65;;;;;;;17.80;83.52;92513.97;4862731;29;20072;-92
2021/09/16 15:33:22;;;;;;;2.28;1.50;;;;;;;17.79;83.43;92512.44;4795005;29;20137;-91
2021/09/16 15:36:29;;;;;;;2.72;1.50;;;;;;;17.72;82.46;92529.97;4859472;29;20061;-91
2021/09/16 15:39:34;;;;;;;;;;;;;;;;;;;;;
2021/09/16 15:46:44;;;;;;;8.02;1.80;;;;;;;17.86;84.21;92538.41;4871891;29;20052;-93
2021/09/16 15:49:53;;;;;;;3.05;1.77;;;;;;;17.83;86.31;92523.97;4846631;29;20049;-93
2021/09/16 15:53:08;;;;;;;4.93;1.85;;;;;;;17.59;88.14;92484.97;4854858;29;20507;-94
2021/09/16 15:56:22;;;;;;;3.17;1.75;;;;;;;17.94;88.64;92544.69;4851227;29;20540;-93
2021/09/16 15:59:43;;;;;;;;;;;;;;;;;;;;;
2021/09/16 16:03:16;;;;;;;;;;;;;;;;;;;;;
2021/09/16 16:06:40;;;;;;;;;;;;;;;;;;;;;
2021/09/16 16:13:25;;;;;;;7.63;2.20;;;;;;;17.20;88.41;92516.19;4870151;29;20046;-92
2021/09/16 16:16:39;;;;;;;4.20;2.30;;;;;;;17.48;90.03;92557.94;4854419;29;20233;-93
2021/09/16 16:19:25;;;;;;;;;;;;;;;;;;;;;
2021/09/16 16:22:45;;;;;;;;;;;;;;;;;;;;;
2021/09/16 16:26:00;;;;;;;8.05;3.30;;;;;;;17.26;90.17;92522.81;4851107;29;20555;-92
2021/09/16 16:28:43;;;;;;;4.68;2.33;;;;;;;17.49;90.87;92559.47;4879906;29;20424;-92
2021/09/16 16:32:02;;;;;;;;;;;;;;;;;;;;;
2021/09/16 16:35:19;;;;;;;;;;;;;;;;;;;;;
2021/09/16 16:38:11;;;;;;;8.75;3.25;;;;;;;17.03;91.44;92511.81;4865769;29;20409;-93
2021/09/16 16:41:15;;;;;;;;;;;;;;;;;;;;;
2021/09/16 16:43:46;;;;;;;4.65;2.40;;;;;;;17.05;91.31;92514.16;4873509;29;20048;-94
2021/09/16 16:46:48;;;;;;;4.93;2.33;;;;;;;17.34;91.00;92560.06;4865949;29;20053;-92
2021/09/16 16:50:14;;;;;;;;;;;;;;;;;;;;;
2021/09/16 16:53:17;;;;;;;;;;;;;;;;;;;;;
2021/09/16 16:56:32;;;;;;;6.80;3.20;;;;;;;17.19;92.53;92562.25;4877817;29;20108;-93
2021/09/16 17:02:40;;;;;;;14.55;4.35;;;;;;;16.81;93.95;92520.88;4863151;29;20053;-93
2021/09/16 17:05:26;;;;;;;;;;;;;;;;;;;;;
2021/09/16 17:08:03;;;;;;;10.10;3.75;;;;;;;16.76;94.00;92523.69;4859125;29;20492;-93
2021/09/16 17:10:51;;;;;;;8.07;3.88;;;;;;;16.95;94.99;92564.78;4886773;29;20068;-93
2021/09/16 17:13:45;;;;;;;6.53;3.30;;;;;;;16.63;94.75;92520.19;4855659;29;20067;-93
2021/09/16 17:16:39;;;;;;;7.13;3.67;;;;;;;16.61;95.74;92519.75;4866671;29;20050;-93
2021/09/16 17:19:20;;;;;;;6.97;3.80;;;;;;;16.58;95.42;92509.81;4855353;29;20060;-93
2021/09/16 17:21:51;;;;;;;5.97;3.90;;;;;;;16.71;95.21;92528.41;4859094;29;20369;-93
2021/09/16 17:24:19;;;;;;;7.95;4.07;;;;;;;16.92;95.23;92562.78;4876045;29;20049;-93
2021/09/16 17:26:51;;;;;;;10.47;4.50;;;;;;;16.59;95.53;92511.34;4860786;29;20166;-94
2021/09/16 17:29:54;;;;;;;8.93;4.15;;;;;;;16.57;96.52;92513.56;4849835;29;20985;-94
2021/09/16 17:32:45;;;;;;;7.63;3.60;;;;;;;16.59;97.07;92550.22;4853840;29;20050;-92
2021/09/16 17:35:37;;;;;;;6.00;2.97;;;;;;;16.31;97.08;92528.81;4887807;29;20052;-92
2021/09/16 17:38:08;;;;;;;6.30;3.95;;;;;;;16.51;96.47;92562.41;4859545;29;20427;-93
2021/09/16 17:40:49;;;;;;;11.18;4.15;;;;;;;16.57;96.91;92584.13;4865431;29;20128;-92
2021/09/16 17:43:36;;;;;;;6.93;3.67;;;;;;;16.51;96.70;92565.06;4861133;29;20060;-93
2021/09/16 17:46:43;;;;;;;8.15;4.13;;;;;;;16.28;96.52;92524.16;4873962;29;20049;-92
2021/09/16 17:49:14;;;;;;;15.00;4.05;;;;;;;16.59;96.78;92561.56;4866405;29;20064;-94
2021/09/16 17:52:17;;;;;;;6.30;4.07;;;;;;;16.45;96.90;92531.97;4871440;29;20097;-93
2021/09/16 17:55:05;;;;;;;9.93;5.20;;;;;;;16.24;96.97;92501.03;4880990;29;20045;-93
2021/09/16 17:57:53;;;;;;;11.00;3.78;;;;;;;16.29;94.97;92497.44;4860000;29;20057;-93
2021/09/16 18:00:27;;;;;;;9.82;4.07;;;;;;;16.19;95.43;92481.97;4839789;29;20144;-93
2021/09/16 18:03:29;;;;;;;;;;;;;;;;;;;;;
2021/09/16 18:06:19;;;;;;;7.60;3.15;;;;;;;16.10;94.08;92481.22;4860229;29;20048;-92
2021/09/16 18:08:49;;;;;;;6.07;3.90;;;;;;;16.30;95.19;92498.19;4853631;29;20067;-92
2021/09/16 18:11:40;;;;;;;;;;;;;;;;;;;;;
2021/09/16 18:14:09;;;;;;;8.13;3.83;;;;;;;16.23;96.90;92522.47;4862860;29;20045;-94
2021/09/16 18:16:37;;;;;;;6.90;3.55;;;;;;;15.87;97.25;92468.31;4875159;29;20037;-92
2021/09/16 18:19:22;;;;;;;5.57;3.17;;;;;;;16.17;97.30;92513.22;4861688;29;20155;-94
2021/09/16 18:22:08;;;;;;;;;;;;;;;;;;;;;
2021/09/16 18:24:47;;;;;;;7.75;3.17;;;;;;;15.77;98.29;92474.72;4857506;29;20054;-93
2021/09/16 18:27:39;;;;;;;5.78;3.00;;;;;;;15.96;98.02;92506.03;4857511;29;20057;-93
2021/09/16 18:30:25;;;;;;;;;;;;;;;;;;;;;
2021/09/16 18:33:14;;;;;;;4.55;2.72;;;;;;;15.87;97.08;92501.84;4869843;29;20053;-94
2021/09/16 18:36:00;;;;;;;;;;;;;;;;;;;;;
2021/09/16 18:41:52;;;;;;;5.55;2.13;;;;;;;15.51;96.09;92480.09;4870677;29;19919;-93
2021/09/16 18:45:09;;;;;;;5.60;2.47;;;;;;;15.81;95.35;92527.66;4860940;29;20067;-93
2021/09/16 18:48:01;;;;;;;2.53;1.30;;;;;;;15.34;94.12;92474.88;4831113;29;20049;-94
2021/09/16 18:51:02;;;;;;;4.38;1.75;;;;;;;15.26;91.76;92488.88;4860922;29;20384;-93
2021/09/16 18:53:55;;;;;;;5.32;1.50;;;;;;;15.19;92.55;92498.03;4834588;29;20099;-93
2021/09/16 18:56:48;;;;;;;3.88;1.85;;;;;;;15.13;93.30;92486.13;4843931;29;20049;-94
2021/09/16 18:59:54;;;;;;;3.47;1.95;;;;;;;15.10;94.16;92486.72;4838729;29;20052;-95
2021/09/16 19:02:37;;;;;;;3.65;2.15;;;;;;;15.36;95.11;92526.22;4843790;29;20172;-95
2021/09/16 19:05:54;;;;;;;3.42;1.75;;;;;;;15.34;95.43;92525.00;4846593;29;20171;-94
2021/09/16 19:09:06;;;;;;;4.68;2.30;;;;;;;15.09;95.53;92490.47;4836230;29;20034;-94
2021/09/16 19:12:13;;;;;;;3.50;2.08;;;;;;;15.24;95.16;92520.81;4876905;29;20051;-94
2021/09/16 19:15:17;;;;;;;3.15;1.85;;;;;;;15.38;94.94;92554.94;4843595;29;20046;-94
2021/09/16 19:17:50;;;;;;;2.95;1.60;;;;;;;15.02;94.01;92502.56;4817062;29;20057;-94
2021/09/16 19:20:59;;;;;;;2.20;1.27;;;;;;;15.05;92.12;92510.63;4846475;29;20033;-92
2021/09/16 19:23:46;;;;;;;2.13;1.15;;;;;;;15.09;91.41;92522.09;4853699;29;20053;-92
2021/09/16 19:26:47;;;;;;;1.17;0.82;;;;;;;15.38;91.70;92570.75;4847147;29;20077;-93
2021/09/16 19:29:21;;;;;;;;;;;;;;;15.30;93.89;92567.03;4845563;29;20056;-93
2021/09/16 19:32:17;;;;;;;2.75;1.73;;;;;;;14.95;94.64;92526.75;4839977;29;19919;-93
2021/09/16 19:35:04;;;;;;;;;;;;;;;;;;;;;
2021/09/16 19:37:57;;;;;;;1.55;1.00;;;;;;;15.22;93.20;92574.94;4867520;29;20049;-92
2021/09/16 19:40:55;;;;;;;1.63;0.98;;;;;;;15.09;91.67;92548.47;4855852;29;20434;-94
2021/09/16 19:43:32;;;;;;;1.15;0.73;;;;;;;15.22;90.95;92574.94;4831902;29;20057;-92
2021/09/16 19:46:12;;;;;;;1.08;0.80;;;;;;;15.24;90.09;92570.91;4820092;29;20046;-93
2021/09/16 19:48:58;;;;;;;0.80;0.73;;;;;;;15.25;88.64;92567.22;4828524;29;20064;-93
2021/09/16 19:52:11;;;;;;;0.70;0.57;;;;;;;14.93;88.56;92515.75;4831522;29;20060;-93
2021/09/16 19:58:03;;;;;;;1.63;0.75;;;;;;;15.01;88.72;92543.97;4848383;29;20221;-93
2021/09/16 20:00:47;;;;;;;0.80;0.50;;;;;;;14.90;88.57;92529.53;4846903;29;20048;-93
2021/09/16 20:03:54;;;;;;;1.63;0.88;;;;;;;15.06;88.80;92553.56;4843479;29;20105;-92
2021/09/16 20:06:48;;;;;;;1.33;0.90;;;;;;;14.84;89.69;92518.41;4845146;29;20529;-92
2021/09/16 20:13:02;;;;;;;2.42;0.98;;;;;;;14.83;89.79;92519.47;4847021;29;20057;-93
2021/09/16 20:16:05;;;;;;;1.25;0.60;;;;;;;14.82;88.41;92539.03;4846527;29;20512;-92
2021/09/16 20:19:07;;;;;;;0.82;0.75;;;;;;;14.91;88.12;92557.47;4837795;29;20544;-93
2021/09/16 20:22:12;;;;;;;1.10;0.80;;;;;;;14.80;89.08;92550.97;4823242;29;20056;-92
2021/09/16 20:25:27;;;;;;;;;;;;;;;;;;;;;
2021/09/16 20:28:47;;;;;;;2.20;1.10;;;;;;;14.72;90.65;92545.34;4857084;29;20084;-92
2021/09/16 20:32:01;;;;;;;0.88;0.80;;;;;;;14.76;91.69;92545.53;4844209;29;20060;-93
2021/09/16 20:35:23;;;;;;;;;;;;;;;;;;;;;
2021/09/16 20:49:03;;;;;;;0.68;0.68;;;;;;;15.09;89.88;92576.69;4846701;29;20057;-93
2021/09/16 20:51:57;;;;;;;4.25;1.15;;;;;;;14.77;91.08;92532.03;4858907;29;20046;-93
2021/09/16 20:55:16;;;;;;;2.45;1.10;;;;;;;14.81;91.69;92544.59;4858233;29;20069;-92
2021/09/16 20:57:58;;;;;;;1.55;0.95;;;;;;;14.62;92.32;92532.50;4842079;29;20137;-93
2021/09/16 21:01:07;;;;;;;1.38;1.00;;;;;;;14.61;92.75;92538.84;4834256;29;20085;-93
2021/09/16 21:04:22;;;;;;;6.47;1.58;;;;;;;14.47;94.19;92527.66;4844915;29;20046;-92
2021/09/16 21:06:58;;;;;;;1.33;0.80;;;;;;;14.59;95.39;92541.03;4827078;29;20082;-92
2021/09/16 21:17:37;;;;;;;1.45;0.93;;;;;;;14.31;94.57;92533.34;4815347;29;20078;-93
2021/09/16 21:20:49;;;;;;;;;;;;;;;;;;;;;
2021/09/16 21:27:24;;;;;;;2.60;1.02;;;;;;;14.51;95.79;92571.50;4859321;29;20050;-94
2021/09/16 21:30:41;;;;;;;;;;;;;;;;;;;;;
2021/09/16 21:34:17;;;;;;;2.47;1.25;;;;;;;14.25;96.00;92536.44;4880418;29;20456;-93
2021/09/16 21:37:13;;;;;;;1.98;1.00;;;;;;;14.18;95.66;92526.38;4861673;29;20124;-92
2021/09/16 21:40:52;;;;;;;;;;;;;;;;;;;;;
2021/09/16 21:44:05;;;;;;;1.88;1.20;;;;;;;14.09;95.96;92504.50;4858074;29;20057;-92
2021/09/16 21:47:06;;;;;;;;;;;;;;;;;;;;;
2021/09/16 21:53:52;;;;;;;2.47;1.13;;;;;;;13.97;96.39;92514.88;4851848;29;20057;-93
2021/09/16 21:56:46;;;;;;;;;;;;;;;;;;;;;
2021/09/16 21:59:58;;;;;;;1.10;0.88;;;;;;;13.87;96.71;92514.06;4831348;29;20049;-94
2021/09/16 22:03:24;;;;;;;2.45;1.33;;;;;;;14.09;96.80;92562.41;4842958;29;20053;-92
2021/09/16 22:09:45;;;;;;;;;;;;;;;;;;;;;
2021/09/16 22:13:35;;;;;;;1.55;1.10;;;;;;;13.74;96.89;92530.75;4860483;29;20046;-92
2021/09/16 22:16:36;;;;;;;1.80;1.10;;;;;;;13.84;96.58;92548.09;4860441;29;20064;-92
2021/09/16 22:33:25;;;;;;;;;;;;;;;;;;;;;
2021/09/16 22:36:36;;;;;;;2.05;1.30;;;;;;;13.46;97.99;92475.69;4860074;29;20056;-93
2021/09/16 22:39:56;;;;;;;;;;;;;;;;;;;;;
2021/09/16 22:42:46;;;;;;;2.72;1.60;;;;;;;13.66;98.44;92510.44;4882597;29;20140;-93
2021/09/16 22:45:44;;;;;;;3.53;1.95;;;;;;;13.48;99.67;92473.53;4854179;29;20041;-93
2021/09/16 22:48:51;;;;;;;;;;;;;;;;;;;;;
2021/09/16 22:51:37;;;;;;;4.40;1.98;;;;;;;13.63;99.05;92493.41;4868233;29;20495;-92
2021/09/16 22:54:35;;;;;;;4.07;1.33;;;;;;;13.52;99.12;92471.84;4857043;29;20057;-93
2021/09/16 22:57:46;;;;;;;2.15;1.30;;;;;;;13.56;98.83;92481.78;4857517;29;20045;-92
2021/09/16 23:00:54;;;;;;;3.50;1.33;;;;;;;13.63;98.52;92480.25;4845788;29;20049;-92
2021/09/16 23:04:13;;;;;;;;;;;;;;;;;;;;;
2021/09/16 23:07:18;;;;;;;;;;;;;;;;;;;;;
2021/09/16 23:10:21;;;;;;;1.40;0.90;;;;;;;13.56;98.52;92474.66;4859868;29;20132;-92
2021/09/16 23:13:10;;;;;;;5.88;1.83;;;;;;;13.57;98.97;92464.91;4794235;29;20050;-93
2021/09/16 23:16:12;;;;;;;;;;;;;;;;;;;;;
2021/09/16 23:19:28;;;;;;;;;;;;;;;;;;;;;
2021/09/16 23:26:16;;;;;;;;;;;;;;;;;;;;;
2021/09/16 23:32:39;;;;;;;5.93;1.35;;;;;;;13.59;98.92;92489.06;4863122;29;20132;-92
2021/09/16 23:35:44;;;;;;;2.15;1.27;;;;;;;13.30;98.83;92451.66;4855954;29;20085;-92
2021/09/16 23:38:43;;;;;;;;;;;;;;;;;;;;;
2021/09/16 23:41:59;;;;;;;2.10;1.30;;;;;;;13.32;98.96;92448.72;4868890;29;20065;-94
2021/09/16 23:45:14;;;;;;;;;;;;;;;;;;;;;
2021/09/16 23:48:37;;;;;;;2.47;1.33;;;;;;;13.41;98.35;92467.94;4859179;29;20113;-92
2021/09/16 23:51:19;;;;;;;2.30;1.33;;;;;;;13.37;98.33;92456.47;4844326;29;20511;-93
2021/09/16 23:54:40;;;;;;;;;;;;;;;;;;;;;
2021/09/16 23:57:42;;;;;;;1.73;1.15;;;;;;;13.55;97.82;92483.63;4840757;29;20050;-94
